sensor_id;sensor_type;location;lat;lon;timestamp;P1;durP1;ratioP1;P2;durP2;ratioP2
16775;SDS011;8505;49.456;8.164;2023-04-03T00:00:59;6.18;;;2.22;;
16775;SDS011;8505;49.456;8.164;2023-04-03T00:03:26;4.03;;;2.40;;
16775;SDS011;8505;49.456;8.164;2023-04-03T00:05:54;3.47;;;1.90;;
16775;SDS011;8505;49.456;8.164;2023-04-03T00:08:22;4.22;;;2.10;;
16775;SDS011;8505;49.456;8.164;2023-04-03T00:10:50;3.73;;;2.20;;
16775;SDS011;8505;49.456;8.164;2023-04-03T00:13:19;4.20;;;2.35;;
16775;SDS011;8505;49.456;8.164;2023-04-03T00:15:46;6.00;;;2.50;;
16775;SDS011;8505;49.456;8.164;2023-04-03T00:18:14;4.85;;;2.50;;
16775;SDS011;8505;49.456;8.164;2023-04-03T00:20:42;3.53;;;2.20;;
16775;SDS011;8505;49.456;8.164;2023-04-03T00:23:10;5.18;;;2.38;;
16775;SDS011;8505;49.456;8.164;2023-04-03T00:25:38;4.07;;;2.40;;
16775;SDS011;8505;49.456;8.164;2023-04-03T00:28:06;4.53;;;2.63;;
16775;SDS011;8505;49.456;8.164;2023-04-03T00:30:35;6.30;;;2.75;;
16775;SDS011;8505;49.456;8.164;2023-04-03T00:33:03;4.80;;;2.55;;
16775;SDS011;8505;49.456;8.164;2023-04-03T00:35:31;5.13;;;2.60;;
16775;SDS011;8505;49.456;8.164;2023-04-03T00:38:02;4.38;;;2.50;;
16775;SDS011;8505;49.456;8.164;2023-04-03T00:40:32;4.93;;;2.50;;
16775;SDS011;8505;49.456;8.164;2023-04-03T00:43:05;4.45;;;2.55;;
16775;SDS011;8505;49.456;8.164;2023-04-03T00:45:41;3.63;;;2.20;;
16775;SDS011;8505;49.456;8.164;2023-04-03T00:48:11;4.30;;;2.55;;
16775;SDS011;8505;49.456;8.164;2023-04-03T00:50:43;4.82;;;2.50;;
16775;SDS011;8505;49.456;8.164;2023-04-03T00:53:12;3.72;;;2.40;;
16775;SDS011;8505;49.456;8.164;2023-04-03T00:55:43;4.30;;;2.55;;
16775;SDS011;8505;49.456;8.164;2023-04-03T00:58:13;4.43;;;2.80;;
16775;SDS011;8505;49.456;8.164;2023-04-03T01:00:45;4.97;;;2.53;;
16775;SDS011;8505;49.456;8.164;2023-04-03T01:03:19;4.63;;;2.50;;
16775;SDS011;8505;49.456;8.164;2023-04-03T01:05:47;4.55;;;2.53;;
16775;SDS011;8505;49.456;8.164;2023-04-03T01:08:16;6.07;;;2.50;;
16775;SDS011;8505;49.456;8.164;2023-04-03T01:10:43;4.13;;;2.57;;
16775;SDS011;8505;49.456;8.164;2023-04-03T01:13:19;5.20;;;2.70;;
16775;SDS011;8505;49.456;8.164;2023-04-03T01:15:50;5.15;;;2.60;;
16775;SDS011;8505;49.456;8.164;2023-04-03T01:18:18;4.33;;;2.73;;
16775;SDS011;8505;49.456;8.164;2023-04-03T01:23:53;5.18;;;2.60;;
16775;SDS011;8505;49.456;8.164;2023-04-03T01:26:27;3.95;;;2.50;;
16775;SDS011;8505;49.456;8.164;2023-04-03T01:28:55;5.43;;;2.65;;
16775;SDS011;8505;49.456;8.164;2023-04-03T01:31:28;3.72;;;2.70;;
16775;SDS011;8505;49.456;8.164;2023-04-03T01:34:02;5.20;;;2.72;;
16775;SDS011;8505;49.456;8.164;2023-04-03T01:36:30;5.95;;;2.83;;
16775;SDS011;8505;49.456;8.164;2023-04-03T01:38:59;4.72;;;2.67;;
16775;SDS011;8505;49.456;8.164;2023-04-03T01:41:28;5.90;;;2.97;;
16775;SDS011;8505;49.456;8.164;2023-04-03T01:43:56;4.85;;;2.90;;
16775;SDS011;8505;49.456;8.164;2023-04-03T01:46:23;4.60;;;2.95;;
16775;SDS011;8505;49.456;8.164;2023-04-03T01:48:51;4.50;;;2.80;;
16775;SDS011;8505;49.456;8.164;2023-04-03T01:51:20;4.47;;;2.70;;
16775;SDS011;8505;49.456;8.164;2023-04-03T01:53:49;4.25;;;2.75;;
16775;SDS011;8505;49.456;8.164;2023-04-03T01:56:17;5.00;;;2.85;;
16775;SDS011;8505;49.456;8.164;2023-04-03T01:58:46;5.13;;;2.88;;
16775;SDS011;8505;49.456;8.164;2023-04-03T02:01:14;5.65;;;2.88;;
16775;SDS011;8505;49.456;8.164;2023-04-03T02:03:42;5.90;;;3.10;;
16775;SDS011;8505;49.456;8.164;2023-04-03T02:06:10;4.78;;;2.80;;
16775;SDS011;8505;49.456;8.164;2023-04-03T02:08:39;4.57;;;2.97;;
16775;SDS011;8505;49.456;8.164;2023-04-03T02:11:08;5.50;;;2.67;;
16775;SDS011;8505;49.456;8.164;2023-04-03T02:13:35;4.75;;;2.58;;
16775;SDS011;8505;49.456;8.164;2023-04-03T02:16:06;5.43;;;2.60;;
16775;SDS011;8505;49.456;8.164;2023-04-03T02:18:36;5.05;;;2.80;;
16775;SDS011;8505;49.456;8.164;2023-04-03T02:21:03;4.03;;;2.50;;
16775;SDS011;8505;49.456;8.164;2023-04-03T02:23:37;4.47;;;2.47;;
16775;SDS011;8505;49.456;8.164;2023-04-03T02:26:07;4.97;;;2.70;;
16775;SDS011;8505;49.456;8.164;2023-04-03T02:28:36;5.93;;;2.60;;
16775;SDS011;8505;49.456;8.164;2023-04-03T02:31:05;4.93;;;2.70;;
16775;SDS011;8505;49.456;8.164;2023-04-03T02:33:33;4.68;;;2.80;;
16775;SDS011;8505;49.456;8.164;2023-04-03T02:36:03;4.88;;;2.58;;
16775;SDS011;8505;49.456;8.164;2023-04-03T02:38:32;4.72;;;2.60;;
16775;SDS011;8505;49.456;8.164;2023-04-03T02:41:01;4.30;;;2.70;;
16775;SDS011;8505;49.456;8.164;2023-04-03T02:43:31;6.03;;;2.70;;
16775;SDS011;8505;49.456;8.164;2023-04-03T02:45:59;6.85;;;2.75;;
16775;SDS011;8505;49.456;8.164;2023-04-03T02:48:27;7.32;;;2.85;;
16775;SDS011;8505;49.456;8.164;2023-04-03T02:50:54;4.93;;;2.80;;
16775;SDS011;8505;49.456;8.164;2023-04-03T02:53:22;5.40;;;2.67;;
16775;SDS011;8505;49.456;8.164;2023-04-03T02:55:50;5.53;;;2.83;;
16775;SDS011;8505;49.456;8.164;2023-04-03T02:58:18;5.82;;;2.83;;
16775;SDS011;8505;49.456;8.164;2023-04-03T03:00:47;4.45;;;2.50;;
16775;SDS011;8505;49.456;8.164;2023-04-03T03:03:15;6.70;;;2.80;;
16775;SDS011;8505;49.456;8.164;2023-04-03T03:05:42;5.75;;;2.80;;
16775;SDS011;8505;49.456;8.164;2023-04-03T03:08:10;6.05;;;2.83;;
16775;SDS011;8505;49.456;8.164;2023-04-03T03:10:38;6.28;;;2.85;;
16775;SDS011;8505;49.456;8.164;2023-04-03T03:13:06;4.78;;;2.63;;
16775;SDS011;8505;49.456;8.164;2023-04-03T03:15:34;5.88;;;2.60;;
16775;SDS011;8505;49.456;8.164;2023-04-03T03:18:03;6.07;;;2.70;;
16775;SDS011;8505;49.456;8.164;2023-04-03T03:20:31;4.72;;;2.70;;
16775;SDS011;8505;49.456;8.164;2023-04-03T03:22:59;5.95;;;2.90;;
16775;SDS011;8505;49.456;8.164;2023-04-03T03:25:27;6.15;;;2.80;;
16775;SDS011;8505;49.456;8.164;2023-04-03T03:27:55;3.60;;;2.67;;
16775;SDS011;8505;49.456;8.164;2023-04-03T03:30:23;4.30;;;2.83;;
16775;SDS011;8505;49.456;8.164;2023-04-03T03:32:51;5.78;;;2.67;;
16775;SDS011;8505;49.456;8.164;2023-04-03T03:35:20;6.43;;;3.10;;
16775;SDS011;8505;49.456;8.164;2023-04-03T03:37:48;4.22;;;2.60;;
16775;SDS011;8505;49.456;8.164;2023-04-03T03:40:16;6.03;;;2.83;;
16775;SDS011;8505;49.456;8.164;2023-04-03T03:42:44;6.78;;;3.00;;
16775;SDS011;8505;49.456;8.164;2023-04-03T03:45:11;5.05;;;2.72;;
16775;SDS011;8505;49.456;8.164;2023-04-03T03:47:39;5.68;;;2.83;;
16775;SDS011;8505;49.456;8.164;2023-04-03T03:50:08;4.78;;;2.70;;
16775;SDS011;8505;49.456;8.164;2023-04-03T03:52:37;7.22;;;2.90;;
16775;SDS011;8505;49.456;8.164;2023-04-03T03:55:06;6.75;;;2.83;;
16775;SDS011;8505;49.456;8.164;2023-04-03T03:57:34;6.27;;;3.03;;
16775;SDS011;8505;49.456;8.164;2023-04-03T04:00:02;4.27;;;2.80;;
16775;SDS011;8505;49.456;8.164;2023-04-03T04:02:30;4.53;;;2.63;;
16775;SDS011;8505;49.456;8.164;2023-04-03T04:04:58;4.47;;;2.63;;
16775;SDS011;8505;49.456;8.164;2023-04-03T04:07:26;6.68;;;2.95;;
16775;SDS011;8505;49.456;8.164;2023-04-03T04:09:56;5.20;;;3.00;;
16775;SDS011;8505;49.456;8.164;2023-04-03T04:12:24;6.73;;;2.93;;
16775;SDS011;8505;49.456;8.164;2023-04-03T04:14:52;5.53;;;2.63;;
16775;SDS011;8505;49.456;8.164;2023-04-03T04:17:20;5.50;;;2.80;;
16775;SDS011;8505;49.456;8.164;2023-04-03T04:19:49;4.57;;;2.87;;
16775;SDS011;8505;49.456;8.164;2023-04-03T04:22:16;5.65;;;2.92;;
16775;SDS011;8505;49.456;8.164;2023-04-03T04:24:44;5.47;;;2.97;;
16775;SDS011;8505;49.456;8.164;2023-04-03T04:27:13;6.20;;;2.90;;
16775;SDS011;8505;49.456;8.164;2023-04-03T04:29:41;5.88;;;2.70;;
16775;SDS011;8505;49.456;8.164;2023-04-03T04:32:09;6.13;;;3.13;;
16775;SDS011;8505;49.456;8.164;2023-04-03T04:34:37;5.83;;;3.00;;
16775;SDS011;8505;49.456;8.164;2023-04-03T04:37:05;6.55;;;2.95;;
16775;SDS011;8505;49.456;8.164;2023-04-03T04:39:33;5.43;;;2.70;;
16775;SDS011;8505;49.456;8.164;2023-04-03T04:42:00;5.05;;;2.90;;
16775;SDS011;8505;49.456;8.164;2023-04-03T04:44:29;6.10;;;3.03;;
16775;SDS011;8505;49.456;8.164;2023-04-03T04:46:57;5.70;;;3.10;;
16775;SDS011;8505;49.456;8.164;2023-04-03T04:49:25;5.15;;;2.67;;
16775;SDS011;8505;49.456;8.164;2023-04-03T04:51:53;4.32;;;2.80;;
16775;SDS011;8505;49.456;8.164;2023-04-03T04:54:20;4.68;;;2.78;;
16775;SDS011;8505;49.456;8.164;2023-04-03T04:56:48;5.07;;;2.73;;
16775;SDS011;8505;49.456;8.164;2023-04-03T04:59:16;6.65;;;3.15;;
16775;SDS011;8505;49.456;8.164;2023-04-03T05:01:47;5.10;;;2.67;;
16775;SDS011;8505;49.456;8.164;2023-04-03T05:04:16;5.50;;;3.10;;
16775;SDS011;8505;49.456;8.164;2023-04-03T05:06:44;6.20;;;2.90;;
16775;SDS011;8505;49.456;8.164;2023-04-03T05:09:11;6.65;;;3.10;;
16775;SDS011;8505;49.456;8.164;2023-04-03T05:11:39;6.68;;;3.13;;
16775;SDS011;8505;49.456;8.164;2023-04-03T05:14:07;5.25;;;2.85;;
16775;SDS011;8505;49.456;8.164;2023-04-03T05:16:34;4.80;;;3.40;;
16775;SDS011;8505;49.456;8.164;2023-04-03T05:19:03;6.47;;;3.20;;
16775;SDS011;8505;49.456;8.164;2023-04-03T05:21:31;6.28;;;3.00;;
16775;SDS011;8505;49.456;8.164;2023-04-03T05:23:59;5.90;;;3.00;;
16775;SDS011;8505;49.456;8.164;2023-04-03T05:26:29;5.93;;;3.17;;
16775;SDS011;8505;49.456;8.164;2023-04-03T05:28:57;8.00;;;3.33;;
16775;SDS011;8505;49.456;8.164;2023-04-03T05:31:25;7.13;;;3.40;;
16775;SDS011;8505;49.456;8.164;2023-04-03T05:33:55;5.43;;;3.28;;
16775;SDS011;8505;49.456;8.164;2023-04-03T05:36:25;4.97;;;3.22;;
16775;SDS011;8505;49.456;8.164;2023-04-03T05:38:53;6.93;;;3.30;;
16775;SDS011;8505;49.456;8.164;2023-04-03T05:41:22;7.05;;;3.30;;
16775;SDS011;8505;49.456;8.164;2023-04-03T05:43:50;7.83;;;3.50;;
16775;SDS011;8505;49.456;8.164;2023-04-03T05:46:18;6.60;;;3.33;;
16775;SDS011;8505;49.456;8.164;2023-04-03T05:48:48;7.10;;;3.40;;
16775;SDS011;8505;49.456;8.164;2023-04-03T05:51:16;7.60;;;3.70;;
16775;SDS011;8505;49.456;8.164;2023-04-03T05:53:47;7.18;;;3.63;;
16775;SDS011;8505;49.456;8.164;2023-04-03T05:56:17;7.53;;;3.70;;
16775;SDS011;8505;49.456;8.164;2023-04-03T05:58:44;5.78;;;3.67;;
16775;SDS011;8505;49.456;8.164;2023-04-03T06:01:12;8.95;;;4.50;;
16775;SDS011;8505;49.456;8.164;2023-04-03T06:03:41;9.38;;;4.43;;
16775;SDS011;8505;49.456;8.164;2023-04-03T06:06:10;11.70;;;5.28;;
16775;SDS011;8505;49.456;8.164;2023-04-03T06:08:40;7.88;;;3.90;;
16775;SDS011;8505;49.456;8.164;2023-04-03T06:11:09;10.98;;;3.97;;
16775;SDS011;8505;49.456;8.164;2023-04-03T06:13:37;8.88;;;3.47;;
16775;SDS011;8505;49.456;8.164;2023-04-03T06:16:04;10.13;;;5.07;;
16775;SDS011;8505;49.456;8.164;2023-04-03T06:18:32;10.07;;;4.38;;
16775;SDS011;8505;49.456;8.164;2023-04-03T06:21:00;6.23;;;3.20;;
16775;SDS011;8505;49.456;8.164;2023-04-03T06:23:28;8.23;;;3.28;;
16775;SDS011;8505;49.456;8.164;2023-04-03T06:25:56;9.45;;;3.42;;
16775;SDS011;8505;49.456;8.164;2023-04-03T06:28:25;7.75;;;3.30;;
16775;SDS011;8505;49.456;8.164;2023-04-03T06:30:53;8.57;;;3.25;;
16775;SDS011;8505;49.456;8.164;2023-04-03T06:33:21;5.90;;;2.70;;
16775;SDS011;8505;49.456;8.164;2023-04-03T06:35:49;6.13;;;2.70;;
16775;SDS011;8505;49.456;8.164;2023-04-03T06:38:17;7.45;;;2.90;;
16775;SDS011;8505;49.456;8.164;2023-04-03T06:40:44;5.57;;;2.57;;
16775;SDS011;8505;49.456;8.164;2023-04-03T06:43:13;9.15;;;4.20;;
16775;SDS011;8505;49.456;8.164;2023-04-03T06:45:42;7.20;;;3.33;;
16775;SDS011;8505;49.456;8.164;2023-04-03T06:48:09;5.85;;;2.65;;
16775;SDS011;8505;49.456;8.164;2023-04-03T06:50:37;9.10;;;2.95;;
16775;SDS011;8505;49.456;8.164;2023-04-03T06:53:05;6.00;;;2.90;;
16775;SDS011;8505;49.456;8.164;2023-04-03T06:55:33;6.55;;;2.80;;
16775;SDS011;8505;49.456;8.164;2023-04-03T06:58:02;8.10;;;3.00;;
16775;SDS011;8505;49.456;8.164;2023-04-03T07:00:30;6.30;;;2.70;;
16775;SDS011;8505;49.456;8.164;2023-04-03T07:03:00;5.93;;;2.40;;
16775;SDS011;8505;49.456;8.164;2023-04-03T07:05:27;6.10;;;2.30;;
16775;SDS011;8505;49.456;8.164;2023-04-03T07:07:55;6.47;;;2.45;;
16775;SDS011;8505;49.456;8.164;2023-04-03T07:10:23;6.28;;;2.45;;
16775;SDS011;8505;49.456;8.164;2023-04-03T07:12:51;6.47;;;2.30;;
16775;SDS011;8505;49.456;8.164;2023-04-03T07:15:18;7.43;;;2.38;;
16775;SDS011;8505;49.456;8.164;2023-04-03T07:17:46;6.38;;;2.40;;
16775;SDS011;8505;49.456;8.164;2023-04-03T07:20:16;6.82;;;2.40;;
16775;SDS011;8505;49.456;8.164;2023-04-03T07:22:44;8.18;;;2.55;;
16775;SDS011;8505;49.456;8.164;2023-04-03T07:25:12;6.85;;;2.50;;
16775;SDS011;8505;49.456;8.164;2023-04-03T07:27:39;5.40;;;2.05;;
16775;SDS011;8505;49.456;8.164;2023-04-03T07:30:08;6.47;;;2.30;;
16775;SDS011;8505;49.456;8.164;2023-04-03T07:32:36;6.65;;;2.38;;
16775;SDS011;8505;49.456;8.164;2023-04-03T07:35:04;6.35;;;2.58;;
16775;SDS011;8505;49.456;8.164;2023-04-03T07:37:33;6.25;;;2.28;;
16775;SDS011;8505;49.456;8.164;2023-04-03T07:40:02;6.13;;;2.10;;
16775;SDS011;8505;49.456;8.164;2023-04-03T07:42:30;6.32;;;2.33;;
16775;SDS011;8505;49.456;8.164;2023-04-03T07:44:58;6.47;;;2.13;;
16775;SDS011;8505;49.456;8.164;2023-04-03T07:47:26;4.35;;;2.00;;
16775;SDS011;8505;49.456;8.164;2023-04-03T07:49:54;7.55;;;2.10;;
16775;SDS011;8505;49.456;8.164;2023-04-03T07:52:23;6.28;;;2.20;;
16775;SDS011;8505;49.456;8.164;2023-04-03T07:54:53;5.57;;;2.38;;
16775;SDS011;8505;49.456;8.164;2023-04-03T07:57:21;6.80;;;2.50;;
16775;SDS011;8505;49.456;8.164;2023-04-03T07:59:48;7.43;;;2.40;;
16775;SDS011;8505;49.456;8.164;2023-04-03T08:02:16;8.18;;;2.53;;
16775;SDS011;8505;49.456;8.164;2023-04-03T08:04:44;5.80;;;2.33;;
16775;SDS011;8505;49.456;8.164;2023-04-03T08:07:11;6.00;;;2.13;;
16775;SDS011;8505;49.456;8.164;2023-04-03T08:09:39;4.95;;;2.42;;
16775;SDS011;8505;49.456;8.164;2023-04-03T08:12:08;6.88;;;2.40;;
16775;SDS011;8505;49.456;8.164;2023-04-03T08:14:37;6.85;;;2.30;;
16775;SDS011;8505;49.456;8.164;2023-04-03T08:17:05;6.40;;;2.10;;
16775;SDS011;8505;49.456;8.164;2023-04-03T08:19:35;5.40;;;2.47;;
16775;SDS011;8505;49.456;8.164;2023-04-03T08:22:03;7.22;;;2.60;;
16775;SDS011;8505;49.456;8.164;2023-04-03T08:24:31;5.05;;;2.40;;
16775;SDS011;8505;49.456;8.164;2023-04-03T08:26:59;16.10;;;5.95;;
16775;SDS011;8505;49.456;8.164;2023-04-03T08:29:28;13.20;;;5.43;;
16775;SDS011;8505;49.456;8.164;2023-04-03T08:31:58;5.93;;;2.65;;
16775;SDS011;8505;49.456;8.164;2023-04-03T08:34:25;7.35;;;2.90;;
16775;SDS011;8505;49.456;8.164;2023-04-03T08:36:53;11.77;;;5.13;;
16775;SDS011;8505;49.456;8.164;2023-04-03T08:39:21;10.18;;;3.80;;
16775;SDS011;8505;49.456;8.164;2023-04-03T08:41:49;21.60;;;10.52;;
16775;SDS011;8505;49.456;8.164;2023-04-03T08:44:19;6.97;;;2.97;;
16775;SDS011;8505;49.456;8.164;2023-04-03T08:46:56;5.80;;;2.40;;
16775;SDS011;8505;49.456;8.164;2023-04-03T08:49:31;4.47;;;2.17;;
16775;SDS011;8505;49.456;8.164;2023-04-03T08:52:02;6.40;;;2.50;;
16775;SDS011;8505;49.456;8.164;2023-04-03T08:54:39;6.43;;;2.80;;
16775;SDS011;8505;49.456;8.164;2023-04-03T08:57:14;6.72;;;2.70;;
16775;SDS011;8505;49.456;8.164;2023-04-03T08:59:42;6.45;;;2.90;;
16775;SDS011;8505;49.456;8.164;2023-04-03T09:02:17;11.65;;;4.57;;
16775;SDS011;8505;49.456;8.164;2023-04-03T09:04:52;4.30;;;2.08;;
16775;SDS011;8505;49.456;8.164;2023-04-03T09:07:22;5.88;;;2.10;;
16775;SDS011;8505;49.456;8.164;2023-04-03T09:09:58;5.30;;;2.00;;
16775;SDS011;8505;49.456;8.164;2023-04-03T09:12:32;4.90;;;1.67;;
16775;SDS011;8505;49.456;8.164;2023-04-03T09:15:08;5.18;;;1.80;;
16775;SDS011;8505;49.456;8.164;2023-04-03T09:17:56;5.10;;;1.80;;
16775;SDS011;8505;49.456;8.164;2023-04-03T09:20:33;6.28;;;2.10;;
16775;SDS011;8505;49.456;8.164;2023-04-03T09:23:15;6.33;;;1.80;;
16775;SDS011;8505;49.456;8.164;2023-04-03T09:25:46;4.38;;;1.70;;
16775;SDS011;8505;49.456;8.164;2023-04-03T09:28:16;4.25;;;1.60;;
16775;SDS011;8505;49.456;8.164;2023-04-03T09:30:44;4.88;;;1.60;;
16775;SDS011;8505;49.456;8.164;2023-04-03T09:33:13;4.77;;;1.40;;
16775;SDS011;8505;49.456;8.164;2023-04-03T09:35:42;4.28;;;1.40;;
16775;SDS011;8505;49.456;8.164;2023-04-03T09:38:15;4.97;;;1.60;;
16775;SDS011;8505;49.456;8.164;2023-04-03T09:40:45;4.55;;;1.38;;
16775;SDS011;8505;49.456;8.164;2023-04-03T09:43:21;4.95;;;1.70;;
16775;SDS011;8505;49.456;8.164;2023-04-03T09:45:54;4.30;;;1.65;;
16775;SDS011;8505;49.456;8.164;2023-04-03T09:48:24;4.43;;;1.40;;
16775;SDS011;8505;49.456;8.164;2023-04-03T09:50:55;4.20;;;1.40;;
16775;SDS011;8505;49.456;8.164;2023-04-03T09:53:29;3.63;;;1.30;;
16775;SDS011;8505;49.456;8.164;2023-04-03T09:56:04;4.07;;;1.40;;
16775;SDS011;8505;49.456;8.164;2023-04-03T09:58:47;5.63;;;2.00;;
16775;SDS011;8505;49.456;8.164;2023-04-03T10:01:21;5.45;;;1.70;;
16775;SDS011;8505;49.456;8.164;2023-04-03T10:04:04;4.80;;;1.20;;
16775;SDS011;8505;49.456;8.164;2023-04-03T10:06:34;3.47;;;1.30;;
16775;SDS011;8505;49.456;8.164;2023-04-03T10:09:13;3.67;;;1.27;;
16775;SDS011;8505;49.456;8.164;2023-04-03T10:14:31;4.67;;;1.70;;
16775;SDS011;8505;49.456;8.164;2023-04-03T10:17:02;4.70;;;1.58;;
16775;SDS011;8505;49.456;8.164;2023-04-03T10:19:44;3.67;;;1.33;;
16775;SDS011;8505;49.456;8.164;2023-04-03T10:22:20;5.22;;;1.60;;
16775;SDS011;8505;49.456;8.164;2023-04-03T10:25:02;5.38;;;2.05;;
16775;SDS011;8505;49.456;8.164;2023-04-03T10:27:42;3.97;;;1.50;;
16775;SDS011;8505;49.456;8.164;2023-04-03T10:30:21;4.22;;;1.65;;
16775;SDS011;8505;49.456;8.164;2023-04-03T10:32:58;4.53;;;1.83;;
16775;SDS011;8505;49.456;8.164;2023-04-03T10:35:37;4.88;;;1.83;;
16775;SDS011;8505;49.456;8.164;2023-04-03T10:38:14;4.50;;;1.60;;
16775;SDS011;8505;49.456;8.164;2023-04-03T10:40:47;4.57;;;1.80;;
16775;SDS011;8505;49.456;8.164;2023-04-03T10:43:24;3.65;;;1.48;;
16775;SDS011;8505;49.456;8.164;2023-04-03T10:46:02;4.88;;;1.33;;
16775;SDS011;8505;49.456;8.164;2023-04-03T10:48:43;3.97;;;1.88;;
16775;SDS011;8505;49.456;8.164;2023-04-03T10:51:23;4.18;;;1.63;;
16775;SDS011;8505;49.456;8.164;2023-04-03T10:53:56;4.13;;;1.30;;
16775;SDS011;8505;49.456;8.164;2023-04-03T10:56:34;4.70;;;1.30;;
16775;SDS011;8505;49.456;8.164;2023-04-03T10:59:08;5.00;;;1.50;;
16775;SDS011;8505;49.456;8.164;2023-04-03T11:01:44;4.00;;;1.40;;
16775;SDS011;8505;49.456;8.164;2023-04-03T11:04:16;3.63;;;1.20;;
16775;SDS011;8505;49.456;8.164;2023-04-03T11:06:49;3.55;;;1.27;;
16775;SDS011;8505;49.456;8.164;2023-04-03T11:09:22;6.13;;;2.08;;
16775;SDS011;8505;49.456;8.164;2023-04-03T11:11:54;5.77;;;2.20;;
16775;SDS011;8505;49.456;8.164;2023-04-03T11:14:29;5.50;;;2.55;;
16775;SDS011;8505;49.456;8.164;2023-04-03T11:17:05;4.80;;;1.90;;
16775;SDS011;8505;49.456;8.164;2023-04-03T11:19:44;4.20;;;1.40;;
16775;SDS011;8505;49.456;8.164;2023-04-03T11:22:20;3.90;;;1.10;;
16775;SDS011;8505;49.456;8.164;2023-04-03T11:24:54;4.77;;;1.20;;
16775;SDS011;8505;49.456;8.164;2023-04-03T11:27:30;2.72;;;1.25;;
16775;SDS011;8505;49.456;8.164;2023-04-03T11:30:05;5.10;;;2.17;;
16775;SDS011;8505;49.456;8.164;2023-04-03T11:32:42;6.53;;;2.10;;
16775;SDS011;8505;49.456;8.164;2023-04-03T11:35:23;3.63;;;1.40;;
16775;SDS011;8505;49.456;8.164;2023-04-03T11:37:53;4.03;;;1.20;;
16775;SDS011;8505;49.456;8.164;2023-04-03T11:40:24;3.17;;;1.40;;
16775;SDS011;8505;49.456;8.164;2023-04-03T11:43:03;6.28;;;2.10;;
16775;SDS011;8505;49.456;8.164;2023-04-03T11:45:35;5.00;;;1.48;;
16775;SDS011;8505;49.456;8.164;2023-04-03T11:48:06;3.70;;;1.40;;
16775;SDS011;8505;49.456;8.164;2023-04-03T11:50:56;3.95;;;1.40;;
16775;SDS011;8505;49.456;8.164;2023-04-03T11:53:32;3.63;;;1.30;;
16775;SDS011;8505;49.456;8.164;2023-04-03T11:56:03;3.85;;;1.13;;
16775;SDS011;8505;49.456;8.164;2023-04-03T12:01:45;4.32;;;1.38;;
16775;SDS011;8505;49.456;8.164;2023-04-03T12:04:14;3.47;;;1.17;;
16775;SDS011;8505;49.456;8.164;2023-04-03T12:09:58;4.25;;;1.40;;
16775;SDS011;8505;49.456;8.164;2023-04-03T12:12:31;3.55;;;1.33;;
16775;SDS011;8505;49.456;8.164;2023-04-03T12:17:52;3.42;;;1.33;;
16775;SDS011;8505;49.456;8.164;2023-04-03T12:23:27;3.40;;;1.30;;
16775;SDS011;8505;49.456;8.164;2023-04-03T12:26:02;3.53;;;1.40;;
16775;SDS011;8505;49.456;8.164;2023-04-03T12:28:48;2.37;;;1.30;;
16775;SDS011;8505;49.456;8.164;2023-04-03T12:31:19;3.10;;;1.30;;
16775;SDS011;8505;49.456;8.164;2023-04-03T12:33:59;3.90;;;1.40;;
16775;SDS011;8505;49.456;8.164;2023-04-03T12:36:39;3.00;;;1.23;;
16775;SDS011;8505;49.456;8.164;2023-04-03T12:39:17;3.50;;;1.40;;
16775;SDS011;8505;49.456;8.164;2023-04-03T12:42:05;3.70;;;1.30;;
16775;SDS011;8505;49.456;8.164;2023-04-03T12:44:51;4.20;;;1.45;;
16775;SDS011;8505;49.456;8.164;2023-04-03T12:47:29;4.95;;;1.50;;
16775;SDS011;8505;49.456;8.164;2023-04-03T12:50:02;3.40;;;1.37;;
16775;SDS011;8505;49.456;8.164;2023-04-03T12:52:33;3.28;;;1.70;;
16775;SDS011;8505;49.456;8.164;2023-04-03T12:55:07;4.28;;;1.65;;
16775;SDS011;8505;49.456;8.164;2023-04-03T12:57:43;5.70;;;2.42;;
16775;SDS011;8505;49.456;8.164;2023-04-03T13:00:18;4.35;;;1.70;;
16775;SDS011;8505;49.456;8.164;2023-04-03T13:02:55;3.33;;;1.80;;
16775;SDS011;8505;49.456;8.164;2023-04-03T13:05:23;4.57;;;2.10;;
16775;SDS011;8505;49.456;8.164;2023-04-03T13:07:52;3.83;;;2.03;;
16775;SDS011;8505;49.456;8.164;2023-04-03T13:10:25;4.15;;;1.92;;
16775;SDS011;8505;49.456;8.164;2023-04-03T13:12:55;4.95;;;1.67;;
16775;SDS011;8505;49.456;8.164;2023-04-03T13:15:25;4.60;;;1.60;;
16775;SDS011;8505;49.456;8.164;2023-04-03T13:17:55;2.92;;;1.15;;
16775;SDS011;8505;49.456;8.164;2023-04-03T13:20:24;4.23;;;1.20;;
16775;SDS011;8505;49.456;8.164;2023-04-03T13:22:55;4.87;;;1.43;;
16775;SDS011;8505;49.456;8.164;2023-04-03T13:25:28;5.32;;;1.30;;
16775;SDS011;8505;49.456;8.164;2023-04-03T13:27:59;3.30;;;1.50;;
16775;SDS011;8505;49.456;8.164;2023-04-03T13:30:39;3.83;;;1.30;;
16775;SDS011;8505;49.456;8.164;2023-04-03T13:33:18;3.70;;;1.20;;
16775;SDS011;8505;49.456;8.164;2023-04-03T13:35:54;2.97;;;1.15;;
16775;SDS011;8505;49.456;8.164;2023-04-03T13:38:24;4.03;;;1.45;;
16775;SDS011;8505;49.456;8.164;2023-04-03T13:40:54;4.30;;;1.30;;
16775;SDS011;8505;49.456;8.164;2023-04-03T13:43:25;5.50;;;1.40;;
16775;SDS011;8505;49.456;8.164;2023-04-03T13:45:57;5.32;;;1.40;;
16775;SDS011;8505;49.456;8.164;2023-04-03T13:48:27;3.67;;;1.30;;
16775;SDS011;8505;49.456;8.164;2023-04-03T13:51:03;4.32;;;1.52;;
16775;SDS011;8505;49.456;8.164;2023-04-03T13:53:34;4.43;;;1.52;;
16775;SDS011;8505;49.456;8.164;2023-04-03T13:56:16;3.85;;;1.40;;
16775;SDS011;8505;49.456;8.164;2023-04-03T13:59:00;4.50;;;1.42;;
16775;SDS011;8505;49.456;8.164;2023-04-03T14:01:39;3.63;;;1.35;;
16775;SDS011;8505;49.456;8.164;2023-04-03T14:04:11;3.25;;;1.33;;
16775;SDS011;8505;49.456;8.164;2023-04-03T14:06:42;3.25;;;1.38;;
16775;SDS011;8505;49.456;8.164;2023-04-03T14:09:10;4.32;;;1.25;;
16775;SDS011;8505;49.456;8.164;2023-04-03T14:11:39;5.00;;;1.70;;
16775;SDS011;8505;49.456;8.164;2023-04-03T14:14:11;4.40;;;1.50;;
16775;SDS011;8505;49.456;8.164;2023-04-03T14:16:41;4.75;;;1.48;;
16775;SDS011;8505;49.456;8.164;2023-04-03T14:19:16;3.80;;;1.40;;
16775;SDS011;8505;49.456;8.164;2023-04-03T14:21:46;3.15;;;1.40;;
16775;SDS011;8505;49.456;8.164;2023-04-03T14:24:15;4.72;;;1.45;;
16775;SDS011;8505;49.456;8.164;2023-04-03T14:26:43;4.05;;;1.60;;
16775;SDS011;8505;49.456;8.164;2023-04-03T14:29:13;11.07;;;6.75;;
16775;SDS011;8505;49.456;8.164;2023-04-03T14:31:42;6.22;;;1.92;;
16775;SDS011;8505;49.456;8.164;2023-04-03T14:34:12;2.60;;;1.30;;
16775;SDS011;8505;49.456;8.164;2023-04-03T14:36:41;5.57;;;1.60;;
16775;SDS011;8505;49.456;8.164;2023-04-03T14:39:10;3.83;;;1.60;;
16775;SDS011;8505;49.456;8.164;2023-04-03T14:41:43;4.28;;;1.80;;
16775;SDS011;8505;49.456;8.164;2023-04-03T14:44:12;4.10;;;1.50;;
16775;SDS011;8505;49.456;8.164;2023-04-03T14:46:41;3.90;;;1.50;;
16775;SDS011;8505;49.456;8.164;2023-04-03T14:49:24;4.88;;;1.90;;
16775;SDS011;8505;49.456;8.164;2023-04-03T14:51:54;5.93;;;2.40;;
16775;SDS011;8505;49.456;8.164;2023-04-03T14:54:22;3.65;;;1.63;;
16775;SDS011;8505;49.456;8.164;2023-04-03T14:56:54;3.92;;;1.30;;
16775;SDS011;8505;49.456;8.164;2023-04-03T14:59:24;3.67;;;1.85;;
16775;SDS011;8505;49.456;8.164;2023-04-03T15:01:53;4.35;;;2.00;;
16775;SDS011;8505;49.456;8.164;2023-04-03T15:04:21;3.70;;;1.52;;
16775;SDS011;8505;49.456;8.164;2023-04-03T15:06:49;3.77;;;2.10;;
16775;SDS011;8505;49.456;8.164;2023-04-03T15:09:20;4.60;;;1.65;;
16775;SDS011;8505;49.456;8.164;2023-04-03T15:11:50;4.05;;;1.80;;
16775;SDS011;8505;49.456;8.164;2023-04-03T15:14:19;5.85;;;1.83;;
16775;SDS011;8505;49.456;8.164;2023-04-03T15:17:03;5.68;;;2.00;;
16775;SDS011;8505;49.456;8.164;2023-04-03T15:19:33;6.38;;;2.15;;
16775;SDS011;8505;49.456;8.164;2023-04-03T15:22:05;4.32;;;1.80;;
16775;SDS011;8505;49.456;8.164;2023-04-03T15:24:32;4.43;;;1.60;;
16775;SDS011;8505;49.456;8.164;2023-04-03T15:27:00;4.65;;;2.25;;
16775;SDS011;8505;49.456;8.164;2023-04-03T15:29:28;4.82;;;1.65;;
16775;SDS011;8505;49.456;8.164;2023-04-03T15:31:56;3.70;;;1.90;;
16775;SDS011;8505;49.456;8.164;2023-04-03T15:34:26;5.05;;;2.13;;
16775;SDS011;8505;49.456;8.164;2023-04-03T15:36:53;6.43;;;3.35;;
16775;SDS011;8505;49.456;8.164;2023-04-03T15:39:21;8.02;;;3.42;;